Stormwatcher's Retreat Logo




                  Temp     Hi    Low   Out    Dew  Wind  Wind   Wind    Hi    Hi   Wind   Heat    THW   THSW                Rain  Solar   Solar Hi Solar   UV    UV    Hi     Heat    Cool    In     In    In     In     In   In Air          Wind  Wind    ISS   Arc.
  Date    Time     Out   Temp   Temp   Hum    Pt. Speed   Dir    Run Speed   Dir  Chill  Index  Index  Index   Bar    Rain  Rate   Rad.  Energy    Rad.  Index  Dose   UV     D-D     D-D    Temp   Hum    Dew   Heat    EMC Density     ET   Samp   Tx   Recept  Int.
------------------------------------------------------------------------------------------------------------------------------------------------------------------------------------------------------------------------------------------------------------------------
 9/17/21 12:10a   52.5   52.9   52.5    89   49.4   0.0   ESE   0.00   1.0   ESE   52.5   52.6   52.6   49.9  29.931  0.00  0.00     0     0.00      0     0.0  0.00   0.0   0.087   0.000   70.0    54   52.6   68.6   9.95  .0740    0.000   201    7    100.0   10 
 9/17/21 12:20a   52.0   52.5   52.0    90   49.2   1.0   ESE   0.17   2.0   ESE   52.0   52.2   52.2   49.5  29.927  0.00  0.00     0     0.00      0     0.0  0.00   0.0   0.090   0.000   70.0    54   52.6   68.6   9.95  .0739    0.000   203    7    100.0   10 
 9/17/21 12:30a   51.6   52.0   51.6    90   48.8   1.0    SE   0.17   3.0    SE   51.6   51.8   51.8   49.1  29.923  0.00  0.00     0     0.00      0     0.0  0.00   0.0   0.093   0.000   69.9    54   52.5   68.5   9.95  .0739    0.000   203    7    100.0   10 
 9/17/21 12:40a   51.5   51.7   51.4    90   48.7   1.0   ESE   0.17   4.0   ESE   51.5   51.7   51.7   49.0  29.923  0.00  0.00     0     0.00      0     0.0  0.00   0.0   0.094   0.000   69.9    54   52.5   68.5   9.95  .0739    0.000   204    7    100.0   10 
 9/17/21 12:50a   51.3   51.5   51.3    90   48.5   2.0   ESE   0.33   4.0   ESE   51.3   51.5   51.5   48.8  29.927  0.00  0.00     0     0.00      0     0.0  0.00   0.0   0.095   0.000   69.9    54   52.5   68.5   9.95  .0740    0.000   204    7    100.0   10 
 9/17/21  1:00a   51.0   51.3   51.0    90   48.2   1.0   ESE   0.17   2.0   ESE   51.0   51.2   51.2   48.5  29.928  0.00  0.00     0     0.00      0     0.0  0.00   0.0   0.097   0.000   69.8    54   52.4   68.5   9.96  .0740    0.000   203    7    100.0   10 
 9/17/21  1:10a   50.6   51.0   50.6    90   47.8   1.0   ESE   0.17   3.0   ESE   50.6   50.8   50.8   48.0  29.930  0.00  0.00     0     0.00      0     0.0  0.00   0.0   0.100   0.000   69.8    54   52.4   68.5   9.96  .0740    0.000   204    7    100.0   10 
 9/17/21  1:20a   50.4   50.6   50.4    90   47.6   0.0   ESE   0.00   2.0   ESE   50.4   50.7   50.7   47.9  29.933  0.00  0.00     0     0.00      0     0.0  0.00   0.0   0.101   0.000   69.8    54   52.4   68.5   9.96  .0740    0.000   204    7    100.0   10 
 9/17/21  1:30a   50.1   50.4   50.1    90   47.3   0.0   ESE   0.00   2.0   ESE   50.1   50.4   50.4   47.6  29.932  0.00  0.00     0     0.00      0     0.0  0.00   0.0   0.103   0.000   69.8    54   52.4   68.5   9.96  .0740    0.000   203    7    100.0   10 
 9/17/21  1:40a   49.8   50.1   49.8    91   47.3   1.0    SE   0.17   4.0    SE   49.8   50.1   50.1   47.3  29.929  0.00  0.00     0     0.00      0     0.0  0.00   0.0   0.106   0.000   69.7    54   52.3   68.4   9.96  .0740    0.000   203    7    100.0   10 
 9/17/21  1:50a   49.5   49.8   49.5    90   46.7   1.0    SE   0.17   3.0   SSE   49.5   49.8   49.8   47.0  29.928  0.00  0.00     0     0.00      0     0.0  0.00   0.0   0.108   0.000   69.7    54   52.3   68.4   9.96  .0740    0.000   202    7    100.0   10 
 9/17/21  2:00a   49.0   49.5   49.0    91   46.5   0.0    SE   0.00   2.0    SE   49.0   49.3   49.3   46.5  29.933  0.00  0.00     0     0.00      0     0.0  0.00   0.0   0.111   0.000   69.7    54   52.3   68.4   9.96  .0740    0.000   203    7    100.0   10 
 9/17/21  2:10a   48.9   49.1   48.9    91   46.4   2.0    SE   0.33   7.0   ESE   48.9   49.2   49.2   46.4  29.928  0.00  0.00     0     0.00      0     0.0  0.00   0.0   0.112   0.000   69.6    54   52.2   68.3   9.97  .0740    0.000   200    7    100.0   10 
 9/17/21  2:20a   48.9   49.0   48.8    91   46.4   1.0    SE   0.17   3.0    SE   48.9   49.2   49.2   46.4  29.931  0.00  0.00     0     0.00      0     0.0  0.00   0.0   0.112   0.000   69.6    54   52.2   68.3   9.97  .0740    0.000   204    7    100.0   10 
 9/17/21  2:30a   48.8   49.0   48.8    91   46.3   1.0    SE   0.17   3.0    SE   48.8   49.1   49.1   46.3  29.924  0.00  0.00     0     0.00      0     0.0  0.00   0.0   0.113   0.000   69.5    54   52.1   68.3   9.97  .0740    0.000   203    7    100.0   10 
 9/17/21  2:40a   48.6   48.8   48.5    91   46.1   1.0    SE   0.17   2.0    SE   48.6   48.9   48.9   46.1  29.927  0.00  0.00     0     0.00      0     0.0  0.00   0.0   0.114   0.000   69.5    54   52.1   68.3   9.97  .0740    0.000   202    7    100.0   10 
 9/17/21  2:50a   48.4   48.6   48.4    92   46.2   0.0    SE   0.00   3.0    SE   48.4   48.7   48.7   45.9  29.927  0.00  0.00     0     0.00      0     0.0  0.00   0.0   0.115   0.000   69.5    54   52.1   68.3   9.97  .0740    0.000   203    7    100.0   10 
 9/17/21  3:00a   48.4   48.5   48.4    92   46.2   0.0   ---   0.00   0.0   ---   48.4   48.7   48.7   45.9  29.928  0.00  0.00     0     0.00      0     0.0  0.00   0.0   0.115   0.000   69.4    54   52.0   68.2   9.97  .0740    0.000   203    7    100.0   10 
 9/17/21  3:10a   48.3   48.4   48.3    92   46.1   0.0    SE   0.00   2.0    SE   48.3   48.6   48.6   45.8  29.931  0.00  0.00     0     0.00      0     0.0  0.00   0.0   0.116   0.000   69.4    54   52.0   68.2   9.97  .0741    0.000   203    7    100.0   10 
 9/17/21  3:20a   48.4   48.4   48.2    92   46.2   2.0    SE   0.33   6.0   SSE   48.4   48.7   48.7   45.9  29.935  0.00  0.00     0     0.00      0     0.0  0.00   0.0   0.115   0.000   69.3    54   51.9   68.1   9.98  .0741    0.000   201    7    100.0   10 
 9/17/21  3:30a   48.4   48.5   48.4    92   46.2   2.0     S   0.33   6.0   SSW   48.4   48.7   48.7   45.9  29.933  0.00  0.00     0     0.00      0     0.0  0.00   0.0   0.115   0.000   69.3    54   51.9   68.1   9.98  .0741    0.000   204    7    100.0   10 
 9/17/21  3:40a   48.3   48.5   48.3    92   46.1   2.0   SSE   0.33   5.0   SSE   48.3   48.6   48.6   45.8  29.925  0.00  0.00     0     0.00      0     0.0  0.00   0.0   0.116   0.000   69.2    54   51.8   68.1   9.98  .0741    0.000   205    7    100.0   10 
 9/17/21  3:50a   48.3   48.3   48.2    92   46.1   1.0   SSE   0.17   4.0   SSE   48.3   48.6   48.6   45.8  29.921  0.00  0.00     0     0.00      0     0.0  0.00   0.0   0.116   0.000   69.2    54   51.8   68.1   9.98  .0741    0.000   201    7    100.0   10 
 9/17/21  4:00a   48.3   48.4   48.2    92   46.1   3.0     S   0.50   5.0     S   47.7   48.6   48.0   45.2  29.922  0.00  0.00     0     0.00      0     0.0  0.00   0.0   0.116   0.000   69.2    54   51.8   68.1   9.98  .0741    0.000   201    7    100.0   10 
 9/17/21  4:10a   48.4   48.4   48.2    92   46.2   2.0   SSE   0.33   7.0   ESE   48.4   48.7   48.7   45.9  29.920  0.00  0.00     0     0.00      0     0.0  0.00   0.0   0.115   0.000   69.1    54   51.8   68.0   9.99  .0741    0.000   201    7    100.0   10 
 9/17/21  4:20a   48.6   48.6   48.3    93   46.7   1.0   SSE   0.17   6.0     E   48.6   49.0   49.0   46.2  29.925  0.00  0.00     0     0.00      0     0.0  0.00   0.0   0.114   0.000   69.1    54   51.8   68.0   9.99  .0741    0.000   203    7    100.0   10 
 9/17/21  4:30a   48.5   48.7   48.5    92   46.3   4.0     S   0.67   6.0     S   47.2   48.8   47.5   44.7  29.928  0.00  0.00     0     0.00      0     0.0  0.00   0.0   0.115   0.000   69.0    54   51.7   67.9   9.99  .0741    0.000   201    7    100.0   10 
 9/17/21  4:40a   48.4   48.5   48.2    92   46.2   3.0     S   0.50   6.0     S   47.8   48.7   48.1   45.3  29.923  0.00  0.00     0     0.00      0     0.0  0.00   0.0   0.115   0.000   69.0    54   51.7   67.9   9.99  .0741    0.000   202    7    100.0   10 
 9/17/21  4:50a   48.7   48.8   48.3    92   46.5   3.0     S   0.50   6.0     S   48.2   49.1   48.6   45.8  29.924  0.00  0.00     0     0.00      0     0.0  0.00   0.0   0.113   0.000   69.0    54   51.7   67.9   9.99  .0741    0.000   203    7    100.0   10 
 9/17/21  5:00a   48.4   48.7   48.4    92   46.2   2.0     S   0.33   6.0     S   48.4   48.7   48.7   45.9  29.926  0.00  0.00     0     0.00      0     0.0  0.00   0.0   0.115   0.000   68.9    54   51.6   67.8   9.99  .0741    0.000   205    7    100.0   10 
 9/17/21  5:10a   48.0   48.4   47.9    92   45.8   3.0     S   0.50   7.0     S   47.4   48.3   47.7   44.8  29.929  0.00  0.00     0     0.00      0     0.0  0.00   0.0   0.118   0.000   68.9    54   51.6   67.8   9.99  .0741    0.000   204    7    100.0   10 
 9/17/21  5:20a   48.0   48.1   47.9    92   45.8   2.0    SE   0.33   6.0    SE   48.0   48.3   48.3   45.4  29.927  0.00  0.00     0     0.00      0     0.0  0.00   0.0   0.118   0.000   68.8    54   51.5   67.8  10.00  .0741    0.000   204    7    100.0   10 
 9/17/21  5:30a   47.8   48.0   47.8    92   45.6   2.0     S   0.33   6.0     S   47.8   48.1   48.1   45.2  29.927  0.00  0.00     0     0.00      0     0.0  0.00   0.0   0.119   0.000   68.8    54   51.5   67.8  10.00  .0741    0.000   202    7    100.0   10 
 9/17/21  5:40a   47.7   47.9   47.7    92   45.5   3.0     S   0.50   7.0   ESE   47.1   48.0   47.4   44.5  29.925  0.00  0.00     0     0.00      0     0.0  0.00   0.0   0.120   0.000   68.7    54   51.4   67.7  10.00  .0742    0.000   203    7    100.0   10 
 9/17/21  5:50a   47.9   47.9   47.7    93   46.0   2.0   SSE   0.33   6.0     S   47.9   48.2   48.2   45.3  29.922  0.00  0.00     0     0.00      0     0.0  0.00   0.0   0.119   0.000   68.7    54   51.4   67.7  10.00  .0742    0.000   203    7    100.0   10 
 9/17/21  6:00a   48.7   48.7   47.9    94   47.1   2.0     S   0.33   6.0     S   48.7   49.1   49.1   46.3  29.919  0.00  0.00     0     0.00      0     0.0  0.00   0.0   0.113   0.000   68.7    54   51.4   67.7  10.00  .0741    0.000   203    7    100.0   10 
 9/17/21  6:10a   49.2   49.2   48.6    93   47.3   3.0     S   0.50   6.0     S   48.7   49.6   49.1   46.3  29.916  0.00  0.00     0     0.00      0     0.0  0.00   0.0   0.110   0.000   68.7    54   51.4   67.7  10.00  .0741    0.000   205    7    100.0   10 
 9/17/21  6:20a   49.5   49.5   49.1    93   47.6   3.0     S   0.50   6.0     S   49.1   49.9   49.5   46.7  29.917  0.00  0.00     0     0.00      0     0.0  0.00   0.0   0.108   0.000   68.6    54   51.3   67.6  10.01  .0742    0.000   202    7    100.0   10 
 9/17/21  6:30a   49.3   49.6   49.3    92   47.1   3.0     S   0.50   5.0   SSW   48.9   49.7   49.3   46.5  29.916  0.00  0.00     0     0.00      0     0.0  0.00   0.0   0.109   0.000   68.6    54   51.3   67.6  10.01  .0742    0.000   204    7    100.0   10 
 9/17/21  6:40a   49.2   49.3   49.2    92   47.0   3.0     S   0.50   6.0     S   48.7   49.6   49.1   46.3  29.914  0.00  0.00     0     0.00      0     0.0  0.00   0.0   0.110   0.000   68.6    54   51.3   67.6  10.01  .0742    0.000   204    7    100.0   10 
 9/17/21  6:50a   49.0   49.2   48.9    92   46.8   4.0     S   0.67   9.0   SSE   47.7   49.4   48.1   45.3  29.916  0.00  0.00     0     0.00      0     0.0  0.00   0.0   0.111   0.000   68.6    54   51.3   67.6  10.01  .0742    0.000   205    7    100.0   10 
 9/17/21  7:00a   49.1   49.1   48.8    92   46.9   3.0     S   0.50   7.0     S   48.6   49.5   49.0   46.2  29.917  0.00  0.00     2     0.03      5     0.0  0.00   0.0   0.110   0.000   68.6    54   51.3   67.6  10.01  .0742    0.000   201    7    100.0   10 
 9/17/21  7:10a   49.2   49.3   49.1    92   47.0   3.0     S   0.50   6.0     S   48.7   49.6   49.1   46.4  29.919  0.00  0.00     7     0.10      9     0.0  0.00   0.0   0.110   0.000   68.6    54   51.3   67.6  10.01  .0742    0.000   203    7    100.0   10 
 9/17/21  7:20a   49.1   49.2   49.0    92   46.9   1.0     S   0.17   4.0     S   49.1   49.5   49.5   46.9  29.916  0.00  0.00    11     0.16     14     0.0  0.00   0.0   0.110   0.000   68.6    54   51.3   67.6  10.01  .0742    0.000   202    7    100.0   10 
 9/17/21  7:30a   49.6   49.6   49.0    92   47.4   2.0     S   0.33   6.0   ESE   49.6   50.0   50.0   47.6  29.911  0.00  0.00    17     0.24     23     0.0  0.00   0.0   0.107   0.000   68.6    54   51.3   67.6  10.01  .0741    0.000   204    7    100.0   10 
 9/17/21  7:40a   50.2   50.2   49.6    92   48.0   2.0    SE   0.33   8.0     N   50.2   50.6   50.6   50.2  29.907  0.00  0.00    35     0.50     42     0.0  0.00   0.0   0.103   0.000   68.6    54   51.3   67.6  10.01  .0741    0.000   200    7    100.0   10 
 9/17/21  7:50a   51.1   51.1   50.3    92   48.9   3.0     S   0.50   9.0   ESE   50.9   51.4   51.2   51.3  29.909  0.00  0.00    45     0.65     49     0.0  0.00   0.0   0.097   0.000   68.6    54   51.3   67.6  10.01  .0741    0.000   204    7    100.0   10 
 9/17/21  8:00a   51.9   51.9   51.1    92   49.6   2.0     S   0.33   9.0     E   51.9   52.1   52.1   52.8  29.906  0.00  0.00    58     0.83     60     0.0  0.00   0.0   0.091   0.000   68.6    54   51.3   67.6  10.01  .0741    0.001   201    7    100.0   10 
 9/17/21  8:10a   52.5   52.5   51.9    91   49.9   2.0     S   0.33   5.0   SSW   52.5   52.7   52.7   53.2  29.906  0.00  0.00    55     0.79     65     0.0  0.00   0.0   0.087   0.000   68.7    54   51.4   67.7  10.00  .0741    0.000   203    7    100.0   10 
 9/17/21  8:20a   52.8   52.8   52.5    90   49.9   2.0     S   0.33   8.0   ESE   52.8   52.9   52.9   54.1  29.902  0.00  0.00    75     1.08     77     0.0  0.00   0.0   0.085   0.000   68.7    54   51.4   67.7  10.00  .0741    0.000   203    7    100.0   10 
 9/17/21  8:30a   53.4   53.4   52.8    89   50.2   3.0     S   0.50   8.0    SE   53.4   53.5   53.5   55.2  29.899  0.00  0.00    89     1.28    107     0.0  0.00   0.0   0.081   0.000   68.7    54   51.4   67.7  10.00  .0741    0.000   200    7    100.0   10 
 9/17/21  8:40a   53.5   53.5   53.3    88   50.0   4.0     S   0.67  10.0     N   52.9   53.5   52.9   55.1  29.899  0.00  0.00   106     1.52    111     0.0  0.00   0.0   0.080   0.000   68.8    54   51.5   67.8  10.00  .0741    0.000   204    7    100.0   10 
 9/17/21  8:50a   54.1   54.1   53.5    87   50.3   3.0     S   0.50   7.0   ESE   54.1   54.1   54.1   55.9  29.900  0.00  0.00    98     1.40    116     0.2  0.01   0.5   0.076   0.000   68.8    53   51.0   67.7   9.87  .0741    0.000   204    7    100.0   10 
 9/17/21  9:00a   54.5   54.6   54.1    86   50.4   3.0     S   0.50   8.0   SSW   54.5   54.4   54.4   56.8  29.903  0.00  0.00   118     1.69    120     0.5  0.04   0.5   0.073   0.000   68.8    53   51.0   67.7   9.87  .0741    0.002   204    7    100.0   10 
 9/17/21  9:10a   55.0   55.0   54.6    85   50.6   3.0     S   0.50   8.0     N   55.0   54.9   54.9   56.4  29.905  0.00  0.00    96     1.38    109     0.6  0.04   0.6   0.069   0.000   68.8    53   51.0   67.7   9.87  .0741    0.000   204    7    100.0   10 
 9/17/21  9:20a   55.3   55.4   55.0    85   50.9   3.0     S   0.50   7.0     S   55.3   55.2   55.2   56.5  29.905  0.00  0.00    93     1.33    113     0.7  0.05   0.8   0.067   0.000   68.9    53   51.1   67.8   9.87  .0741    0.000   201    7    100.0   10 
 9/17/21  9:30a   56.1   56.1   55.4    84   51.3   4.0     S   0.67  14.0   SSW   55.9   56.0   55.8   58.8  29.907  0.00  0.00   147     2.11    163     0.9  0.06   0.9   0.062   0.000   69.0    53   51.2   67.8   9.87  .0741    0.000   203    7    100.0   10 
 9/17/21  9:40a   56.4   56.4   56.1    83   51.3   5.0     S   0.83  12.0     N   55.7   56.2   55.5   58.2  29.907  0.00  0.00   144     2.06    160     0.9  0.06   1.0   0.060   0.000   69.0    53   51.2   67.8   9.87  .0741    0.000   202    7    100.0   10 
 9/17/21  9:50a   56.3   56.5   56.3    82   50.9   4.0     S   0.67   8.0     S   56.2   56.1   56.0   57.7  29.899  0.00  0.00   116     1.66    130     1.0  0.07   1.1   0.060   0.000   69.1    53   51.2   67.9   9.87  .0740    0.000   201    7    100.0   10 
 9/17/21 10:00a   57.1   57.1   56.3    82   51.7   4.0     S   0.67  10.0   SSW   57.1   56.9   56.9   58.7  29.901  0.00  0.00   120     1.72    142     1.1  0.08   1.2   0.055   0.000   69.1    53   51.2   67.9   9.87  .0741    0.003   205    7    100.0   10 
 9/17/21 10:10a   58.0   58.0   57.2    80   51.9   4.0     S   0.67  11.0     S   58.0   57.8   57.8   61.2  29.896  0.00  0.00   179     2.57    204     1.3  0.09   1.4   0.049   0.000   69.2    53   51.3   68.0   9.87  .0740    0.000   201    7    100.0   10 
 9/17/21 10:20a   58.3   58.5   58.0    80   52.2   7.0   SSW   1.17  15.0     N   57.2   58.1   57.0   61.4  29.901  0.00  0.00   228     3.27    237     1.6  0.11   1.6   0.047   0.000   69.0    52   50.6   67.8   9.67  .0741    0.000   204    7    100.0   10 
 9/17/21 10:30a   55.5   58.3   55.5    83   50.4  13.0     N   2.17  19.0   SSE   50.2   55.3   50.0   52.3  29.903  0.00  0.00   172     2.47    211     1.4  0.10   1.5   0.066   0.000   68.6    53   50.8   67.5   9.88  .0741    0.000   201    7    100.0   10 
 9/17/21 10:40a   55.2   55.5   55.2    85   50.8  14.0     N   2.33  20.0     N   49.4   55.1   49.3   51.4  29.904  0.00  0.00   167     2.39    186     1.5  0.11   1.6   0.068   0.000   67.8    54   50.5   66.9  10.04  .0743    0.000   204    7    100.0   10 
 9/17/21 10:50a   55.6   55.6   55.2    85   51.2  14.0     N   2.33  21.0     N   49.9   55.5   49.8   52.7  29.907  0.00  0.00   212     3.04    223     1.7  0.12   1.7   0.065   0.000   67.3    54   50.1   66.3  10.06  .0744    0.000   201    7    100.0   10 
 9/17/21 11:00a   56.6   56.6   55.6    84   51.8  15.0     N   2.50  23.0     N   50.7   56.5   50.6   53.6  29.898  0.00  0.00   225     3.23    229     1.7  0.12   1.7   0.058   0.000   67.0    54   49.8   66.0  10.07  .0744    0.005   203    7    100.0   10 
 9/17/21 11:10a   59.2   59.2   56.7    78   52.3  12.0     N   2.00  19.0     S   54.8   58.9   54.5   58.5  29.890  0.00  0.00   264     3.78    311     2.0  0.14   2.3   0.040   0.000   66.9    53   49.2   65.8   9.91  .0744    0.000   203    7    100.0   10 
 9/17/21 11:20a   58.8   60.0   58.8    77   51.6  15.0     N   2.50  23.0     N   53.2   58.4   52.8   56.6  29.900  0.00  0.00   279     4.00    313     2.2  0.16   2.3   0.043   0.000   66.9    52   48.7   65.7   9.71  .0744    0.000   205    7    100.0   10 
 9/17/21 11:30a   56.3   58.8   56.3    81   50.5  14.0     N   2.33  20.0     N   50.7   56.0   50.4   53.6  29.898  0.00  0.00   242     3.47    248     2.0  0.14   2.0   0.060   0.000   66.7    54   49.5   65.6  10.08  .0744    0.000   202    7    100.0   10 
 9/17/21 11:40a   59.1   59.1   56.3    77   51.9  13.0     N   2.17  22.0     N   54.2   58.7   53.8   57.2  29.895  0.00  0.00   251     3.60    278     2.0  0.14   2.1   0.041   0.000   66.5    51   47.8   65.1   9.52  .0745    0.000   202    7    100.0   10 
 9/17/21 11:50a   61.4   61.4   59.1    69   51.1  13.0     N   2.17  21.0     N   56.9   60.8   56.3   61.1  29.892  0.00  0.00   335     4.80    434     2.4  0.17   2.8   0.025   0.000   66.6    49   46.8   65.0   9.12  .0745    0.000   201    7    100.0   10 
 9/17/21 12:00p   62.6   62.7   61.4    61   49.0  13.0     N   2.17  19.0     N   58.3   61.6   57.3   63.1  29.887  0.00  0.00   409     5.86    487     2.7  0.19   3.0   0.017   0.000   66.8    47   45.9   65.1   8.81  .0745    0.009   204    7    100.0   10 
 9/17/21 12:10p   61.7   62.6   61.2    58   46.8  12.0     N   2.00  19.0     N   57.7   60.4   56.4   61.2  29.883  0.00  0.00   336     4.82    415     2.6  0.19   3.0   0.023   0.000   66.8    47   45.9   65.1   8.81  .0745    0.000   202    7    100.0   10 
 9/17/21 12:20p   60.0   62.3   59.9    62   46.9  14.0     N   2.33  22.0   SSE   54.9   58.9   53.8   57.3  29.887  0.00  0.00   279     4.00    371     2.5  0.18   3.0   0.035   0.000   66.8    47   45.9   65.1   8.81  .0745    0.000   201    7    100.0   10 
 9/17/21 12:30p   58.4   60.3   58.4    68   47.9  15.0     N   2.50  25.0     N   52.7   57.5   51.8   54.6  29.888  0.00  0.00   243     3.48    332     2.2  0.16   2.5   0.046   0.000   66.7    48   46.4   65.0   8.92  .0745    0.000   204    7    100.0   10 
 9/17/21 12:40p   58.2   58.4   57.8    68   47.7  18.0     N   3.00  28.0     N   51.6   57.3   50.7   54.7  29.885  0.00  0.00   342     4.90    378     2.6  0.19   2.8   0.047   0.000   66.5    49   46.7   64.9   9.12  .0745    0.000   204    7    100.0   10 
 9/17/21 12:50p   58.8   59.5   58.3    69   48.6  17.0     N   2.83  28.0     N   52.6   58.0   51.8   55.6  29.879  0.00  0.00   315     4.52    408     2.7  0.19   3.2   0.043   0.000   66.3    49   46.6   64.7   9.12  .0745    0.000   204    7    100.0   10 
 9/17/21  1:00p   58.9   58.9   58.1    69   48.7  19.0     N   3.17  29.0     N   52.2   58.1   51.4   53.4  29.875  0.00  0.00   203     2.91    230     1.9  0.14   2.1   0.042   0.000   66.5    50   47.3   65.0   9.32  .0745    0.010   202    7    100.0   10 
 9/17/21  1:10p   61.0   61.0   58.9    64   48.7  14.0     N   2.33  22.0     N   56.0   60.1   55.1   56.8  29.874  0.00  0.00   174     2.49    190     1.8  0.13   1.9   0.028   0.000   66.8    50   47.6   65.4   9.31  .0744    0.000   203    7    100.0   10 
 9/17/21  1:20p   60.9   61.4   60.7    66   49.5  16.0     N   2.67  25.0   SSW   55.3   60.1   54.5   55.8  29.872  0.00  0.00   157     2.25    199     1.6  0.11   2.0   0.028   0.000   67.1    51   48.4   65.8   9.51  .0744    0.000   201    7    100.0   10 
 9/17/21  1:30p   60.1   60.8   60.1    71   50.7  17.0     N   2.83  26.0   SSE   54.0   59.5   53.4   54.4  29.871  0.00  0.00   140     2.01    174     1.4  0.10   1.6   0.034   0.000   67.3    51   48.5   66.0   9.50  .0743    0.000   202    7    100.0   10 
 9/17/21  1:40p   60.0   60.5   59.9    73   51.3  16.0     N   2.67  25.0     S   54.2   59.5   53.7   54.8  29.870  0.00  0.00   142     2.04    181     1.3  0.09   1.5   0.035   0.000   67.4    51   48.6   66.1   9.50  .0743    0.000   203    7    100.0   10 
 9/17/21  1:50p   61.3   61.3   60.0    77   54.0  15.0     N   2.50  24.0   SSW   56.0   61.2   55.9   58.1  29.870  0.00  0.00   194     2.78    237     1.6  0.11   1.8   0.026   0.000   67.6    51   48.8   66.4   9.50  .0743    0.000   203    7    100.0   10 
 9/17/21  2:00p   61.9   62.0   61.3    78   55.0  10.0     N   1.67  18.0     N   59.2   61.9   59.2   60.8  29.870  0.00  0.00   148     2.12    190     1.3  0.09   1.5   0.022   0.000   67.7    51   48.9   66.5   9.50  .0742    0.007   203    7    100.0   10 
 9/17/21  2:10p   62.3   62.3   61.9    79   55.7   9.0   SSW   1.50  14.0     N   60.4   62.4   60.5   62.1  29.870  0.00  0.00   140     2.01    174     1.2  0.09   1.4   0.019   0.000   67.8    51   49.0   66.6   9.49  .0742    0.000   203    7    100.0   10 
 9/17/21  2:20p   62.6   62.6   62.2    80   56.3  10.0     N   1.67  16.0     N   60.0   62.9   60.3   62.9  29.866  0.00  0.00   185     2.65    251     1.5  0.11   2.0   0.017   0.000   67.9    51   49.1   66.7   9.49  .0742    0.000   202    7    100.0   10 
 9/17/21  2:30p   61.5   62.8   61.5    80   55.3  13.0     N   2.17  25.0     N   57.0   61.6   57.1   60.9  29.864  0.00  0.00   269     3.86    334     2.0  0.14   2.4   0.024   0.000   68.0    51   49.2   66.8   9.49  .0742    0.000   201    7    100.0   10 
 9/17/21  2:40p   61.7   61.8   61.5    82   56.1  17.0     N   2.83  29.0     N   55.9   61.9   56.1   58.9  29.863  0.00  0.00   229     3.28    250     1.5  0.11   1.6   0.023   0.000   68.1    51   49.3   66.9   9.49  .0742    0.000   202    7    100.0   10 
 9/17/21  2:50p   61.3   61.6   61.0    83   56.1  18.0     N   3.00  29.0     N   55.1   61.5   55.3   57.8  29.861  0.00  0.00   211     3.02    264     1.5  0.11   1.8   0.026   0.000   68.2    52   49.9   67.1   9.69  .0741    0.000   201    7    100.0   10 
 9/17/21  3:00p   62.0   62.2   61.3    82   56.4  16.0     N   2.67  26.0     N   56.5   62.2   56.7   59.1  29.862  0.00  0.00   195     2.80    229     1.3  0.09   1.6   0.021   0.000   68.3    52   50.0   67.2   9.68  .0741    0.006   204    7    100.0   10 
 9/17/21  3:10p   60.6   61.9   60.6    83   55.4  17.0     N   2.83  26.0     N   54.6   60.7   54.7   55.5  29.862  0.00  0.00   117     1.68    163     0.9  0.06   1.1   0.031   0.000   68.4    52   50.1   67.2   9.68  .0741    0.000   205    7    100.0   10 
 9/17/21  3:20p   61.8   61.8   60.6    85   57.2  16.0     N   2.67  23.0     N   56.3   62.1   56.6   57.0  29.862  0.00  0.00    91     1.30     98     0.7  0.05   0.8   0.022   0.000   68.4    52   50.1   67.2   9.68  .0741    0.000   202    7    100.0   10 
 9/17/21  3:30p   62.6   62.6   61.8    86   58.4  12.0     N   2.00  19.0     N   58.7   63.1   59.2   59.9  29.863  0.00  0.00    98     1.40    105     0.7  0.05   0.7   0.017   0.000   68.4    52   50.1   67.2   9.68  .0741    0.000   200    7    100.0   10 
 9/17/21  3:40p   63.6   63.6   62.6    87   59.7  10.0     N   1.67  19.0     N   61.2   64.2   61.8   63.0  29.856  0.00  0.00   114     1.63    128     0.8  0.06   0.8   0.010   0.000   68.4    52   50.1   67.2   9.68  .0741    0.000   203    7    100.0   10 
 9/17/21  3:50p   61.0   64.4   61.0    81   55.1  14.0     N   2.33  22.0     N   56.0   61.0   56.0   56.8  29.858  0.00  0.00   106     1.52    125     0.7  0.05   0.8   0.028   0.000   68.5    52   50.2   67.3   9.68  .0741    0.000   203    7    100.0   10 
 9/17/21  4:00p   59.1   60.8   58.7    87   55.2  15.0     N   2.50  22.0     N   53.5   59.2   53.6   53.5  29.855  0.00  0.00    60     0.86     72     0.1  0.01   0.5   0.041   0.000   68.5    53   50.7   67.4   9.88  .0740    0.004   203    7    100.0   10 
 9/17/21  4:10p   60.4   61.1   59.2    88   56.8  16.0     N   2.67  25.0     N   54.7   60.7   55.0   55.2  29.855  0.00  0.00    73     1.05     88     0.3  0.02   0.5   0.032   0.000   68.6    53   50.8   67.5   9.88  .0740    0.000   201    7    100.0   10 
 9/17/21  4:20p   61.8   61.8   60.3    88   58.2  15.0     N   2.50  25.0     N   56.6   62.2   57.0   57.4  29.852  0.00  0.00    74     1.06     90     0.3  0.02   0.5   0.022   0.000   68.6    53   50.8   67.5   9.88  .0740    0.000   204    7    100.0   10 
 9/17/21  4:30p   61.4   62.0   61.4    87   57.5  14.0     N   2.33  22.0     N   56.5   61.7   56.8   56.5  29.851  0.00  0.00    45     0.65     58     0.0  0.00   0.0   0.025   0.000   68.7    53   50.9   67.6   9.88  .0740    0.000   202    7    100.0   10 
 9/17/21  4:40p   62.0   62.2   61.4    90   59.0  15.0     N   2.50  23.0     N   56.8   62.5   57.3   57.1  29.848  0.01  0.00    45     0.65     63     0.0  0.00   0.0   0.021   0.000   68.7    53   50.9   67.6   9.88  .0740    0.000   201    7    100.0   10 
 9/17/21  4:50p   62.5   62.6   61.9    92   60.1  13.0     N   2.17  25.0    SE   58.2   63.2   58.9   58.9  29.842  0.00  0.00    53     0.76     74     0.0  0.00   0.0   0.017   0.000   68.7    53   50.9   67.6   9.88  .0740    0.000   204    7    100.0   10 
 9/17/21  5:00p   62.4   62.5   62.3    93   60.3  15.0     N   2.50  28.0     N   57.3   63.1   58.0   57.9  29.839  0.00  0.00    48     0.69     60     0.0  0.00   0.0   0.018   0.000   68.8    53   51.0   67.7   9.87  .0739    0.002   203    7    100.0   10 
 9/17/21  5:10p   62.9   63.0   62.5    93   60.8  18.0     N   3.00  30.0     N   57.0   63.6   57.7   57.3  29.836  0.00  0.00    32     0.46     46     0.0  0.00   0.0   0.015   0.000   69.0    54   51.7   67.9   9.99  .0739    0.000   201    7    100.0   10 
 9/17/21  5:20p   62.7   63.0   62.7    93   60.6  18.0     N   3.00  34.0     N   56.7   63.4   57.4   56.9  29.830  0.00  0.00    25     0.36     30     0.0  0.00   0.0   0.016   0.000   69.1    54   51.8   68.0   9.99  .0739    0.000   203    7    100.0   10 
 9/17/21  5:30p   62.3   62.8   62.3    93   60.2  17.0     N   2.83  27.0     N   56.5   63.0   57.2   56.6  29.830  0.00  0.00    21     0.30     26     0.0  0.00   0.0   0.019   0.000   69.1    54   51.8   68.0   9.99  .0739    0.000   202    7    100.0   10 
 9/17/21  5:40p   62.0   62.3   62.0    92   59.6  13.0     N   2.17  25.0     N   57.6   62.6   58.2   57.3  29.829  0.00  0.00    16     0.23     19     0.0  0.00   0.0   0.021   0.000   69.0    54   51.7   67.9   9.99  .0739    0.000   204    7    100.0   10 
 9/17/21  5:50p   61.7   61.9   61.7    93   59.7  14.0     N   2.33  29.0     N   56.8   62.3   57.4   56.5  29.826  0.00  0.00    14     0.20     14     0.0  0.00   0.0   0.023   0.000   69.0    54   51.7   67.9   9.99  .0739    0.000   203    7    100.0   10 
 9/17/21  6:00p   61.9   62.1   61.7    93   59.9  13.0     N   2.17  27.0     N   57.5   62.5   58.1   57.1  29.820  0.00  0.00    13     0.19     14     0.0  0.00   0.0   0.022   0.000   69.0    54   51.7   67.9   9.99  .0738    0.001   202    7    100.0   10 
 9/17/21  6:10p   61.7   62.1   61.7    94   60.0  15.0     N   2.50  25.0    SW   56.5   62.3   57.1   56.2  29.814  0.00  0.00    12     0.17     12     0.0  0.00   0.0   0.023   0.000   69.0    54   51.7   67.9   9.99  .0738    0.000   202    7    100.0   10 
 9/17/21  6:20p   61.9   62.0   61.6    94   60.2  15.0     N   2.50  26.0     N   56.7   62.5   57.3   56.4  29.812  0.00  0.00    12     0.17     14     0.0  0.00   0.0   0.022   0.000   69.0    54   51.7   67.9   9.99  .0738    0.000   204    7    100.0   10 
 9/17/21  6:30p   61.9   61.9   61.7    94   60.2  18.0     N   3.00  30.0     N   55.8   62.5   56.4   55.5  29.812  0.00  0.00     9     0.13     11     0.0  0.00   0.0   0.022   0.000   69.1    54   51.8   68.0   9.99  .0738    0.000   203    7    100.0   10 
 9/17/21  6:40p   61.6   62.0   61.6    95   60.2  21.0     N   3.50  36.0     N   54.8   62.2   55.4   54.5  29.809  0.00  0.00     7     0.10      7     0.0  0.00   0.0   0.024   0.000   69.1    54   51.8   68.0   9.99  .0738    0.000   202    7    100.0   10 
 9/17/21  6:50p   61.6   62.0   61.6    95   60.2  21.0     N   3.50  34.0     N   54.8   62.2   55.4   54.5  29.806  0.00  0.00     6     0.09      7     0.0  0.00   0.0   0.024   0.000   69.1    55   52.2   68.1  10.17  .0738    0.000   200    7    100.0   10 
 9/17/21  7:00p   61.9   61.9   61.5    96   60.7  21.0     N   3.50  41.0     N   55.2   62.6   55.9   54.6  29.803  0.00  0.00     2     0.03      5     0.0  0.00   0.0   0.022   0.000   69.2    55   52.3   68.1  10.17  .0738    0.001   205    7    100.0   10 
 9/17/21  7:10p   61.5   62.0   61.5    95   60.1  23.0     N   3.83  40.0     S   54.3   62.1   54.9   53.7  29.797  0.00  0.00     0     0.00      0     0.0  0.00   0.0   0.024   0.000   69.3    55   52.4   68.2  10.16  .0737    0.000   202    7    100.0   10 
 9/17/21  7:20p   61.7   62.0   61.5    95   60.3  23.0     N   3.83  40.0     N   54.5   62.3   55.1   53.9  29.783  0.00  0.00     0     0.00      0     0.0  0.00   0.0   0.023   0.000   69.3    55   52.4   68.2  10.16  .0737    0.000   202    7    100.0   10 
 9/17/21  7:30p   62.0   62.1   61.8    96   60.8  25.0     N   4.17  39.0     N   54.5   62.7   55.2   54.1  29.788  0.00  0.00     0     0.00      0     0.0  0.00   0.0   0.021   0.000   69.4    55   52.5   68.3  10.16  .0737    0.000   204    7    100.0   10 
 9/17/21  7:40p   62.4   62.4   61.8    96   61.2  24.0     N   4.00  40.0     N   55.1   63.2   55.9   54.4  29.779  0.00  0.00     0     0.00      0     0.0  0.00   0.0   0.018   0.000   69.4    55   52.5   68.3  10.16  .0737    0.000   203    7    100.0   10 
 9/17/21  7:50p   62.9   62.9   62.3    96   61.7  23.0     N   3.83  40.0    SW   55.9   63.7   56.7   55.2  29.777  0.00  0.00     0     0.00      0     0.0  0.00   0.0   0.015   0.000   69.5    55   52.6   68.3  10.16  .0736    0.000   203    7    100.0   10 
 9/17/21  8:00p   62.6   63.1   62.6    95   61.1  22.0     N   3.67  38.0     N   55.8   63.4   56.6   55.1  29.775  0.00  0.00     0     0.00      0     0.0  0.00   0.0   0.017   0.000   69.6    55   52.7   68.4  10.16  .0736    0.001   204    7    100.0   10 
 9/17/21  8:10p   62.4   62.7   62.3    96   61.2  21.0     N   3.50  33.0   SSW   55.7   63.2   56.5   54.9  29.771  0.00  0.00     0     0.00      0     0.0  0.00   0.0   0.018   0.000   69.6    55   52.7   68.4  10.16  .0736    0.000   205    7    100.0   10 
 9/17/21  8:20p   62.3   62.7   62.3    96   61.1  22.0     N   3.67  36.0    SW   55.4   63.1   56.2   54.7  29.773  0.00  0.00     0     0.00      0     0.0  0.00   0.0   0.019   0.000   69.7    55   52.8   68.5  10.16  .0736    0.000   202    7    100.0   10 
 9/17/21  8:30p   62.9   63.0   62.4    96   61.7  22.0     N   3.67  43.0     N   56.1   63.7   56.9   55.4  29.771  0.00  0.00     0     0.00      0     0.0  0.00   0.0   0.015   0.000   69.8    55   52.9   68.6  10.15  .0736    0.000   203    7    100.0   10 
 9/17/21  8:40p   63.1   63.1   62.9    96   61.9  22.0     N   3.67  44.0     N   56.3   64.0   57.2   55.7  29.764  0.00  0.00     0     0.00      0     0.0  0.00   0.0   0.013   0.000   69.8    55   52.9   68.6  10.15  .0735    0.000   203    7    100.0   10 
 9/17/21  8:50p   63.0   63.1   62.9    96   61.8  24.0     N   4.00  40.0     N   55.8   63.8   56.6   55.1  29.766  0.00  0.00     0     0.00      0     0.0  0.00   0.0   0.014   0.000   69.9    55   53.0   68.6  10.15  .0735    0.000   204    7    100.0   10 
 9/17/21  9:00p   63.0   63.0   62.9    96   61.8  27.0     N   4.50  45.0     N   55.4   63.8   56.2   54.8  29.760  0.00  0.00     0     0.00      0     0.0  0.00   0.0   0.014   0.000   69.9    55   53.0   68.6  10.15  .0735    0.001   204    7    100.0   10 
 9/17/21  9:10p   63.0   63.0   62.8    96   61.8  24.0     N   4.00  44.0     N   55.8   63.8   56.6   55.1  29.755  0.00  0.00     0     0.00      0     0.0  0.00   0.0   0.014   0.000   70.0    55   53.1   68.7  10.15  .0735    0.000   204    7    100.0   10 
 9/17/21  9:20p   62.8   63.0   62.6    96   61.6  25.0     N   4.17  38.0     N   55.5   63.6   56.3   54.9  29.757  0.01  0.00     0     0.00      0     0.0  0.00   0.0   0.015   0.000   70.0    56   53.6   68.8  10.35  .0735    0.000   200    7    100.0   10 
 9/17/21  9:30p   62.0   62.8   62.0    96   60.8  24.0     N   4.00  44.0     N   54.7   62.7   55.4   53.9  29.760  0.00  0.00     0     0.00      0     0.0  0.00   0.0   0.021   0.000   70.0    56   53.6   68.8  10.35  .0735    0.000   204    7    100.0   10 
 9/17/21  9:40p   60.8   62.0   60.8    96   59.7  25.0     N   4.17  38.0     N   53.2   61.3   53.7   52.2  29.760  0.00  0.00     0     0.00      0     0.0  0.00   0.0   0.029   0.000   70.0    56   53.6   68.8  10.35  .0735    0.000   202    7    100.0   10 
 9/17/21  9:50p   62.0   62.0   60.7    97   61.1  21.0     N   3.50  34.0     N   55.3   62.7   56.0   54.4  29.750  0.01  0.00     0     0.00      0     0.0  0.00   0.0   0.021   0.000   70.0    56   53.6   68.8  10.35  .0735    0.000   203    7    100.0   10 
 9/17/21 10:00p   61.7   62.3   61.5    96   60.5  23.0     N   3.83  38.0     N   54.5   62.4   55.2   53.7  29.752  0.00  0.00     0     0.00      0     0.0  0.00   0.0   0.023   0.000   70.0    56   53.6   68.8  10.35  .0735    0.001   203    7    100.0   10 
 9/17/21 10:10p   61.7   61.7   60.6    98   61.1  21.0     N   3.50  35.0   SSW   54.9   62.4   55.6   54.0  29.750  0.00  0.00     0     0.00      0     0.0  0.00   0.0   0.023   0.000   70.1    56   53.7   68.9  10.35  .0734    0.000   203    7    100.0   10 
 9/17/21 10:20p   60.8   61.9   60.8    96   59.7  22.0     N   3.67  43.0     N   53.7   61.3   54.2   52.6  29.761  0.02  0.22     0     0.00      0     0.0  0.00   0.0   0.029   0.000   70.1    56   53.7   68.9  10.35  .0735    0.000   202    7    100.0   10 
 9/17/21 10:30p   56.9   60.7   56.9    95   55.5  23.0     N   3.83  31.0     N   49.1   57.1   49.3   47.6  29.794  0.13  2.41     0     0.00      0     0.0  0.00   0.0   0.056   0.000   70.1    56   53.7   68.9  10.35  .0736    0.000   204    7    100.0   10 
 9/17/21 10:40p   55.3   56.8   55.3    96   54.2  18.0    SW   3.00  26.0    SW   48.3   55.5   48.5   46.5  29.814  0.11  1.70     0     0.00      0     0.0  0.00   0.0   0.067   0.000   70.2    56   53.8   69.1  10.35  .0736    0.000   202    7    100.0   10 
 9/17/21 10:50p   55.4   55.5   55.0    97   54.6  16.0     N   2.67  22.0     N   49.0   55.7   49.3   47.2  29.809  0.03  0.63     0     0.00      0     0.0  0.00   0.0   0.067   0.000   70.2    56   53.8   69.1  10.35  .0736    0.000   203    7    100.0   10 
 9/17/21 11:00p   55.4   55.6   55.4    97   54.6  19.0     N   3.17  27.0   SSE   48.2   55.7   48.5   46.6  29.819  0.00  0.05     0     0.00      0     0.0  0.00   0.0   0.067   0.000   70.2    57   54.2   69.2  10.54  .0736    0.001   204    7    100.0   10 
 9/17/21 11:10p   54.3   55.4   54.3    97   53.5  14.0     N   2.33  20.0     N   48.4   54.6   48.7   46.5  29.835  0.01  0.05     0     0.00      0     0.0  0.00   0.0   0.074   0.000   70.2    57   54.2   69.2  10.54  .0736    0.000   204    7    100.0   10 
 9/17/21 11:20p   54.6   54.9   54.2    97   53.8  11.0     N   1.83  18.0     S   50.1   54.9   50.4   47.9  29.833  0.00  0.00     0     0.00      0     0.0  0.00   0.0   0.072   0.000   70.2    57   54.2   69.2  10.54  .0736    0.000   203    7    100.0   10 
 9/17/21 11:30p   54.7   54.7   54.2    98   54.1   6.0     S   1.00  11.0     N   53.2   55.0   53.5   50.6  29.835  0.02  0.09     0     0.00      0     0.0  0.00   0.0   0.072   0.000   70.2    57   54.2   69.2  10.54  .0736    0.000   203    7    100.0   10 
 9/17/21 11:40p   55.1   55.4   54.7    97   54.3   6.0   SSW   1.00  10.0   SSW   53.7   55.4   54.0   51.1  29.830  0.02  0.22     0     0.00      0     0.0  0.00   0.0   0.069   0.000   70.2    57   54.2   69.2  10.54  .0736    0.000   201    7    100.0   10 
 9/17/21 11:50p   55.0   55.2   55.0    97   54.2   5.0   SSW   0.83   9.0   SSW   54.1   55.3   54.4   51.5  29.838  0.02  0.23     0     0.00      0     0.0  0.00   0.0   0.069   0.000   70.2    57   54.2   69.2  10.54  .0736    0.000   196    7     99.0   10 
 9/18/21 12:00a   55.3   55.3   55.0    98   54.7   5.0   SSW   0.83  11.0     N   54.5   55.6   54.8   51.9  29.834  0.04  0.61     0     0.00      0     0.0  0.00   0.0   0.067   0.000   70.2    57   54.2   69.2  10.54  .0736    0.000   202    7    100.0   10 
 9/18/21 12:10a   56.2   56.2   55.4    98   55.6   8.0   SSW   1.33  12.0     N   53.9   56.5   54.2   51.5  29.838  0.03  0.61     0     0.00      0     0.0  0.00   0.0   0.061   0.000   70.2    57   54.2   69.2  10.54  .0736    0.000   200    7    100.0   10 
 9/18/21 12:20a   56.3   56.5   56.1    98   55.7   4.0     S   0.67  10.0     N   56.2   56.6   56.5   53.7  29.816  0.01  0.13     0     0.00      0     0.0  0.00   0.0   0.060   0.000   70.2    56   53.8   69.1  10.35  .0736    0.000   199    7    100.0   10 
 9/18/21 12:30a   55.9   56.4   55.9    97   55.1   2.0     S   0.33   6.0     S   55.9   56.2   56.2   53.4  29.840  0.01  0.08     0     0.00      0     0.0  0.00   0.0   0.063   0.000   70.2    56   53.8   69.1  10.35  .0737    0.000   201    7    100.0   10 
 9/18/21 12:40a   56.0   56.0   55.7    98   55.4   0.0   SSW   0.00   3.0   SSW   56.0   56.3   56.3   53.5  29.825  0.03  0.49     0     0.00      0     0.0  0.00   0.0   0.063   0.000   70.2    56   53.8   69.1  10.35  .0736    0.000   203    7    100.0   10 
 9/18/21 12:50a   55.7   56.2   55.7    97   54.9   0.0   ---   0.00   0.0   ---   55.7   56.0   56.0   53.1  29.830  0.02  0.26     0     0.00      0     0.0  0.00   0.0   0.065   0.000   70.2    56   53.8   69.1  10.35  .0736    0.000   204    7    100.0   10 
 9/18/21  1:00a   55.5   55.7   55.4    98   54.9   0.0     S   0.00   3.0     S   55.5   55.8   55.8   52.9  29.816  0.04  0.51     0     0.00      0     0.0  0.00   0.0   0.066   0.000   70.2    56   53.8   69.1  10.35  .0736    0.000   203    7    100.0   10 
 9/18/21  1:10a   55.4   55.7   55.4    97   54.6   0.0   ---   0.00   0.0   ---   55.4   55.7   55.7   52.8  29.818  0.02  0.20     0     0.00      0     0.0  0.00   0.0   0.067   0.000   70.1    56   53.7   68.9  10.35  .0736    0.000   202    7    100.0   10 
 9/18/21  1:20a   55.9   55.9   55.2    98   55.3   0.0     S   0.00   5.0    SW   55.9   56.2   56.2   53.4  29.810  0.02  0.18     0     0.00      0     0.0  0.00   0.0   0.063   0.000   70.2    56   53.8   69.1  10.35  .0736    0.000   203    7    100.0   10 
 9/18/21  1:30a   55.8   55.9   55.7    98   55.2   0.0   ---   0.00   0.0   ---   55.8   56.1   56.1   53.3  29.798  0.01  0.18     0     0.00      0     0.0  0.00   0.0   0.064   0.000   70.2    56   53.8   69.1  10.35  .0735    0.000   200    7    100.0   10 
 9/18/21  1:40a   56.2   56.2   55.7    98   55.6   1.0   ESE   0.17   7.0   ESE   56.2   56.5   56.5   53.7  29.794  0.01  0.09     0     0.00      0     0.0  0.00   0.0   0.061   0.000   70.1    56   53.7   68.9  10.35  .0736    0.000   200    7    100.0   10 
 9/18/21  1:50a   56.7   56.7   56.2    98   56.1   4.0   ESE   0.67   9.0     E   56.6   57.0   56.9   54.1  29.785  0.01  0.07     0     0.00      0     0.0  0.00   0.0   0.058   0.000   70.2    56   53.8   69.1  10.35  .0735    0.000   203    7    100.0   10 
 9/18/21  2:00a   56.9   57.0   56.6    98   56.3   2.0    SE   0.33  10.0     N   56.9   57.2   57.2   54.4  29.793  0.01  0.06     0     0.00      0     0.0  0.00   0.0   0.056   0.000   70.2    56   53.8   69.1  10.35  .0735    0.000   200    7    100.0   10 
 9/18/21  2:10a   57.0   57.0   56.9    98   56.4   2.0     S   0.33   6.0     S   57.0   57.3   57.3   54.5  29.787  0.01  0.06     0     0.00      0     0.0  0.00   0.0   0.056   0.000   70.1    56   53.7   68.9  10.35  .0735    0.000   203    7    100.0   10 
 9/18/21  2:20a   57.0   57.0   56.8    98   56.4   4.0     S   0.67  10.0     N   57.0   57.3   57.3   54.5  29.797  0.01  0.08     0     0.00      0     0.0  0.00   0.0   0.056   0.000   70.1    56   53.7   68.9  10.35  .0736    0.000   201    7    100.0   10 
 9/18/21  2:30a   57.4   57.4   56.9    98   56.8   5.0     S   0.83   9.0     N   56.9   57.7   57.2   54.4  29.797  0.01  0.08     0     0.00      0     0.0  0.00   0.0   0.053   0.000   70.1    56   53.7   68.9  10.35  .0736    0.000   199    7    100.0   10 
 9/18/21  2:40a   57.7   57.7   57.3    98   57.1   6.0     S   1.00  13.0     N   56.8   58.0   57.1   54.4  29.790  0.01  0.08     0     0.00      0     0.0  0.00   0.0   0.051   0.000   70.1    56   53.7   68.9  10.35  .0735    0.000   201    7    100.0   10 
 9/18/21  2:50a   57.8   57.8   57.7    98   57.2   8.0     N   1.33  18.0     N   55.9   58.2   56.3   53.7  29.777  0.02  0.09     0     0.00      0     0.0  0.00   0.0   0.050   0.000   70.1    56   53.7   68.9  10.35  .0735    0.000   202    7    100.0   10 
 9/18/21  3:00a   57.7   57.8   57.7    98   57.1   5.0     S   0.83  13.0   SSE   57.2   58.0   57.5   54.8  29.757  0.02  0.12     0     0.00      0     0.0  0.00   0.0   0.051   0.000   70.1    56   53.7   68.9  10.35  .0735    0.000   202    7    100.0   10 
 9/18/21  3:10a   57.6   57.8   57.6    98   57.0   3.0     S   0.50   9.0     E   57.6   57.9   57.9   55.2  29.753  0.01  0.12     0     0.00      0     0.0  0.00   0.0   0.051   0.000   70.1    56   53.7   68.9  10.35  .0735    0.000   202    7    100.0   10 
 9/18/21  3:20a   57.6   57.7   57.5    98   57.0   4.0     S   0.67  11.0     N   57.6   57.9   57.9   55.2  29.755  0.02  0.21     0     0.00      0     0.0  0.00   0.0   0.051   0.000   70.1    56   53.7   68.9  10.35  .0735    0.000   201    7    100.0   10 
 9/18/21  3:30a   57.3   57.6   57.3    97   56.5   5.0     S   0.83  13.0     N   56.8   57.6   57.1   54.3  29.777  0.01  0.14     0     0.00      0     0.0  0.00   0.0   0.053   0.000   70.1    56   53.7   68.9  10.35  .0735    0.000   202    7    100.0   10 
 9/18/21  3:40a   56.6   57.3   56.6    97   55.8   7.0     N   1.17  12.0     N   55.1   56.9   55.4   52.6  29.776  0.02  0.11     0     0.00      0     0.0  0.00   0.0   0.058   0.000   70.1    56   53.7   68.9  10.35  .0735    0.000   201    7    100.0   10 
 9/18/21  3:50a   57.0   57.0   56.3    98   56.4   5.0     S   0.83  13.0     N   56.4   57.3   56.7   53.9  29.771  0.02  0.18     0     0.00      0     0.0  0.00   0.0   0.056   0.000   70.0    56   53.6   68.8  10.35  .0735    0.000   203    7    100.0   10 
 9/18/21  4:00a   57.3   57.6   57.0    97   56.5  11.0     N   1.83  21.0     N   53.2   57.6   53.5   51.1  29.783  0.01  0.18     0     0.00      0     0.0  0.00   0.0   0.053   0.000   70.0    56   53.6   68.8  10.35  .0735    0.000   201    7    100.0   10 
 9/18/21  4:10a   57.8   57.8   57.2    98   57.2   9.0     N   1.50  20.0     N   55.1   58.2   55.5   53.0  29.790  0.02  0.10     0     0.00      0     0.0  0.00   0.0   0.050   0.000   70.0    56   53.6   68.8  10.35  .0736    0.000   204    7    100.0   10 
 9/18/21  4:20a   57.5   57.9   57.4    97   56.7  12.0     N   2.00  19.0     N   52.9   57.8   53.2   50.9  29.792  0.01  0.08     0     0.00      0     0.0  0.00   0.0   0.052   0.000   70.0    56   53.6   68.8  10.35  .0736    0.000   201    7    100.0   10 
 9/18/21  4:30a   58.1   58.1   57.4    97   57.3  11.0     N   1.83  21.0     N   54.1   58.4   54.4   52.1  29.770  0.01  0.07     0     0.00      0     0.0  0.00   0.0   0.048   0.000   70.0    56   53.6   68.8  10.35  .0735    0.000   203    7    100.0   10 
 9/18/21  4:40a   58.1   58.2   58.0    97   57.3  15.0     N   2.50  29.0     N   52.4   58.4   52.7   50.7  29.770  0.00  0.05     0     0.00      0     0.0  0.00   0.0   0.048   0.000   70.0    56   53.6   68.8  10.35  .0735    0.000   203    7    100.0   10 
 9/18/21  4:50a   58.0   58.2   58.0    97   57.2  14.0     N   2.33  26.0     N   52.6   58.3   52.9   50.8  29.754  0.01  0.05     0     0.00      0     0.0  0.00   0.0   0.049   0.000   69.9    56   53.5   68.7  10.35  .0735    0.000   203    7    100.0   10 
 9/18/21  5:00a   57.1   58.0   57.1    96   56.0  16.0     N   2.67  25.0     N   50.9   57.3   51.1   49.1  29.788  0.00  0.00     0     0.00      0     0.0  0.00   0.0   0.055   0.000   69.9    56   53.5   68.7  10.35  .0736    0.000   203    7    100.0   10 
 9/18/21  5:10a   56.9   57.1   56.5    97   56.1  14.0     N   2.33  21.0     N   51.4   57.2   51.7   49.5  29.786  0.00  0.00     0     0.00      0     0.0  0.00   0.0   0.056   0.000   69.9    56   53.5   68.7  10.35  .0736    0.000   199    7    100.0   10 
 9/18/21  5:20a   57.3   57.3   56.4    98   56.7  15.0     N   2.50  23.0     N   51.5   57.6   51.8   49.7  29.760  0.01  0.00     0     0.00      0     0.0  0.00   0.0   0.053   0.000   69.9    56   53.5   68.7  10.35  .0735    0.000   198    7    100.0   10 
 9/18/21  5:30a   57.7   57.7   57.3    98   57.1  15.0     N   2.50  28.0     N   51.9   58.0   52.2   50.2  29.777  0.00  0.00     0     0.00      0     0.0  0.00   0.0   0.051   0.000   69.9    56   53.5   68.7  10.35  .0735    0.000   200    7    100.0   10 
 9/18/21  5:40a   57.9   58.0   57.7    97   57.1  15.0     N   2.50  26.0     N   52.2   58.2   52.5   50.5  29.760  0.00  0.00     0     0.00      0     0.0  0.00   0.0   0.049   0.000   69.9    56   53.5   68.7  10.35  .0735    0.000   202    7    100.0   10 
 9/18/21  5:50a   57.8   58.0   57.8    97   57.0  16.0     N   2.67  28.0     N   51.8   58.1   52.1   50.1  29.776  0.01  0.00     0     0.00      0     0.0  0.00   0.0   0.050   0.000   69.9    56   53.5   68.7  10.35  .0735    0.000   203    7    100.0   10 
 9/18/21  6:00a   57.6   57.7   57.0    98   57.0  16.0     N   2.67  28.0   SSE   51.5   57.9   51.8   49.8  29.763  0.00  0.00     0     0.00      0     0.0  0.00   0.0   0.051   0.000   69.8    56   53.4   68.7  10.35  .0735    0.000   202    7    100.0   10 
 9/18/21  6:10a   57.7   57.9   57.7    97   56.9  18.0     N   3.00  28.0     N   51.1   58.0   51.4   49.5  29.769  0.00  0.00     0     0.00      0     0.0  0.00   0.0   0.051   0.000   69.9    56   53.5   68.7  10.35  .0735    0.000   201    7    100.0   10 
 9/18/21  6:20a   57.9   57.9   57.7    97   57.1  16.0     N   2.67  25.0     N   51.9   58.2   52.2   50.2  29.763  0.00  0.00     0     0.00      0     0.0  0.00   0.0   0.049   0.000   69.8    56   53.4   68.7  10.35  .0735    0.000   202    7    100.0   10 
 9/18/21  6:30a   57.9   57.9   57.8    97   57.1  18.0     N   3.00  27.0     N   51.3   58.2   51.6   49.8  29.774  0.01  0.00     0     0.00      0     0.0  0.00   0.0   0.049   0.000   69.8    56   53.4   68.7  10.35  .0736    0.000   201    7    100.0   10 
 9/18/21  6:40a   57.4   57.9   57.4    97   56.6  20.0     N   3.33  29.0     N   50.2   57.7   50.5   48.7  29.771  0.00  0.00     0     0.00      0     0.0  0.00   0.0   0.053   0.000   69.8    56   53.4   68.7  10.35  .0735    0.000   202    7    100.0   10 
 9/18/21  6:50a   57.3   57.4   57.2    97   56.5  18.0     N   3.00  26.0     N   50.6   57.6   50.9   49.0  29.760  0.00  0.00     0     0.00      0     0.0  0.00   0.0   0.053   0.000   69.8    56   53.4   68.7  10.35  .0735    0.000   203    7    100.0   10 
 9/18/21  7:00a   57.1   57.3   57.0    98   56.5  20.0     N   3.33  35.0     N   49.9   57.4   50.2   48.4  29.774  0.00  0.00     0     0.00      0     0.0  0.00   0.0   0.055   0.000   69.9    56   53.5   68.7  10.35  .0735    0.000   203    7    100.0   10 
 9/18/21  7:10a   57.0   57.2   56.9    98   56.4  19.0     N   3.17  35.0     N   50.0   57.3   50.3   48.4  29.771  0.01  0.00     0     0.00      0     0.0  0.00   0.0   0.056   0.000   69.8    56   53.4   68.7  10.35  .0735    0.000   202    7    100.0   10 
 9/18/21  7:20a   57.1   57.2   57.0    98   56.5  19.0     N   3.17  29.0     N   50.1   57.4   50.4   48.5  29.771  0.01  0.05     0     0.00      0     0.0  0.00   0.0   0.055   0.000   69.8    56   53.4   68.7  10.35  .0735    0.000   202    7    100.0   10 
 9/18/21  7:30a   57.2   57.2   57.1    98   56.6  21.0     N   3.50  31.0     N   49.8   57.5   50.1   48.3  29.771  0.02  0.10     0     0.00      0     0.0  0.00   0.0   0.054   0.000   69.9    56   53.5   68.7  10.35  .0735    0.000   203    7    100.0   10 
 9/18/21  7:40a   57.1   57.2   57.1    98   56.5  21.0     N   3.50  33.0     N   49.7   57.4   50.0   48.9  29.775  0.03  0.38     1     0.01      5     0.0  0.00   0.0   0.055   0.000   69.9    56   53.5   68.7  10.35  .0735    0.000   204    7    100.0   10 
 9/18/21  7:50a   57.1   57.2   57.1    98   56.5  22.0     N   3.67  34.0    SE   49.5   57.4   49.8   48.8  29.770  0.04  0.45     3     0.04      7     0.0  0.00   0.0   0.055   0.000   69.9    57   54.0   68.8  10.55  .0735    0.000   201    7    100.0   10 
 9/18/21  8:00a   57.0   57.2   57.0    98   56.4  22.0     N   3.67  32.0   SSE   49.4   57.3   49.7   48.8  29.773  0.01  0.19     8     0.11     12     0.0  0.00   0.0   0.056   0.000   69.9    57   54.0   68.8  10.55  .0735    0.000   202    7    100.0   10 
 9/18/21  8:10a   57.1   57.2   57.0    98   56.5  21.0     N   3.50  34.0    SW   49.7   57.4   50.0   49.4  29.774  0.00  0.04    19     0.27     23     0.0  0.00   0.0   0.055   0.000   69.9    57   54.0   68.8  10.55  .0735    0.000   204    7    100.0   10 
 9/18/21  8:20a   57.3   57.3   57.1    98   56.7  21.0     N   3.50  35.0   SSW   49.9   57.6   50.2   49.5  29.778  0.00  0.00    17     0.24     21     0.0  0.00   0.0   0.053   0.000   69.9    56   53.5   68.7  10.35  .0735    0.000   204    7    100.0   10 
 9/18/21  8:30a   57.1   57.3   57.0    98   56.5  20.0     N   3.33  33.0     N   49.9   57.4   50.2   50.3  29.783  0.01  0.00    45     0.65     56     0.0  0.00   0.0   0.055   0.000   69.9    56   53.5   68.7  10.35  .0736    0.000   203    7    100.0   10 
 9/18/21  8:40a   57.0   57.1   56.9    98   56.4  18.0     N   3.00  29.0     N   50.3   57.3   50.6   51.3  29.792  0.00  0.00    68     0.97     81     0.0  0.00   0.0   0.056   0.000   70.0    56   53.6   68.8  10.35  .0736    0.000   204    7    100.0   10 
 9/18/21  8:50a   56.9   57.0   56.8    98   56.3  18.0     N   3.00  30.0     N   50.2   57.2   50.5   51.1  29.795  0.00  0.00    69     0.99     97     0.0  0.00   0.0   0.056   0.000   70.0    56   53.6   68.8  10.35  .0736    0.000   201    7    100.0   10 
 9/18/21  9:00a   56.7   56.9   56.6    97   55.9  16.0     N   2.67  27.0     N   50.5   57.0   50.8   52.5  29.797  0.00  0.00   114     1.63    144     0.3  0.02   0.5   0.058   0.000   70.1    56   53.7   68.9  10.35  .0736    0.001   203    7    100.0   10 
 9/18/21  9:10a   56.7   56.8   56.6    97   55.9  14.0     N   2.33  23.0     S   51.1   57.0   51.4   54.2  29.800  0.00  0.00   151     2.16    171     0.5  0.04   0.5   0.058   0.000   70.2    56   53.8   69.1  10.35  .0736    0.000   202    7    100.0   10 
 9/18/21  9:20a   56.1   56.7   56.1    97   55.3  13.0     N   2.17  22.0     N   50.8   56.4   51.1   52.9  29.800  0.00  0.00   116     1.66    135     0.5  0.04   0.6   0.062   0.000   70.2    56   53.8   69.1  10.35  .0736    0.000   200    7    100.0   10 
 9/18/21  9:30a   56.0   56.1   55.8    97   55.2  14.0     N   2.33  27.0   SSE   50.3   56.3   50.6   51.8  29.805  0.00  0.00    97     1.39    120     0.5  0.04   0.6   0.063   0.000   70.3    56   53.9   69.2  10.34  .0735    0.000   205    7    100.0   10 
 9/18/21  9:40a   55.9   56.0   55.8    97   55.1  13.0     N   2.17  20.0     N   50.6   56.2   50.9   52.1  29.807  0.00  0.00   101     1.45    135     0.6  0.04   0.8   0.063   0.000   70.3    56   53.9   69.2  10.34  .0736    0.000   202    7    100.0   10 
 9/18/21  9:50a   56.6   56.6   55.9    98   56.0  14.0     N   2.33  19.0     N   51.0   56.9   51.3   54.1  29.810  0.00  0.00   170     2.44    209     0.8  0.06   0.9   0.058   0.000   70.3    56   53.9   69.2  10.34  .0736    0.000   203    7    100.0   10 
 9/18/21 10:00a   57.0   57.0   56.6    97   56.2  14.0     N   2.33  26.0     N   51.5   57.3   51.8   55.3  29.818  0.00  0.00   209     3.00    269     0.8  0.06   1.0   0.056   0.000   70.4    56   54.0   69.3  10.34  .0736    0.003   204    7    100.0   10 
 9/18/21 10:10a   56.6   57.0   56.6    97   55.8  13.0     N   2.17  20.0     N   51.4   56.9   51.7   53.5  29.822  0.00  0.00   136     1.95    153     0.6  0.04   0.8   0.058   0.000   70.4    57   54.4   69.4  10.53  .0736    0.000   204    7    100.0   10 
 9/18/21 10:20a   56.5   56.6   56.1    97   55.7  15.0     N   2.50  22.0     N   50.6   56.8   50.9   52.7  29.824  0.00  0.00   141     2.02    174     0.6  0.04   0.8   0.059   0.000   70.4    57   54.4   69.4  10.53  .0736    0.000   201    7    100.0   10 
 9/18/21 10:30a   56.4   56.7   56.4    97   55.6  16.0     N   2.67  27.0     N   50.1   56.7   50.4   53.0  29.826  0.00  0.00   190     2.72    257     0.9  0.06   1.0   0.060   0.000   70.4    57   54.4   69.4  10.53  .0736    0.000   202    7    100.0   10 
 9/18/21 10:40a   55.3   56.5   55.2    97   54.5  16.0     N   2.67  27.0     S   48.9   55.6   49.2   51.6  29.827  0.00  0.00   184     2.64    262     0.9  0.06   1.2   0.067   0.000   70.3    57   54.3   69.3  10.54  .0736    0.000   203    7    100.0   10 
 9/18/21 10:50a   57.4   57.4   55.3    98   56.8  19.0     N   3.17  32.0     N   50.5   57.7   50.8   53.8  29.831  0.00  0.00   235     3.37    323     1.2  0.09   1.5   0.053   0.000   70.3    57   54.3   69.3  10.54  .0736    0.000   204    7    100.0   10 
 9/18/21 11:00a   57.5   57.6   57.4    97   56.7  18.0     N   3.00  28.0     S   50.8   57.8   51.1   54.1  29.836  0.00  0.00   234     3.35    313     1.5  0.11   1.8   0.052   0.000   70.4    57   54.4   69.4  10.53  .0736    0.004   203    7    100.0   10 
 9/18/21 11:10a   57.9   58.0   57.6    98   57.3  17.0     N   2.83  29.0     N   51.6   58.3   52.0   56.6  29.836  0.00  0.00   333     4.77    394     1.8  0.13   2.0   0.049   0.000   70.4    57   54.4   69.4  10.53  .0736    0.000   202    7    100.0   10 
 9/18/21 11:20a   57.7   58.0   57.7    97   56.9  17.0     N   2.83  30.0     N   51.3   58.0   51.6   54.6  29.837  0.00  0.00   235     3.37    350     1.6  0.11   2.0   0.051   0.000   70.5    57   54.5   69.5  10.53  .0736    0.000   203    7    100.0   10 
 9/18/21 11:30a   58.1   58.2   57.7    97   57.3  17.0     N   2.83  28.0   SSW   51.8   58.4   52.1   56.7  29.838  0.00  0.00   340     4.87    374     2.1  0.15   2.3   0.048   0.000   70.5    57   54.5   69.5  10.53  .0736    0.000   204    7    100.0   10 
 9/18/21 11:40a   58.1   58.3   58.0    97   57.3  19.0     N   3.17  31.0     N   51.3   58.4   51.6   56.5  29.834  0.00  0.00   388     5.56    480     2.1  0.15   2.5   0.048   0.000   70.6    57   54.6   69.7  10.53  .0735    0.000   203    7    100.0   10 
 9/18/21 11:50a   58.0   58.1   58.0    97   57.2  19.0     N   3.17  34.0     N   51.2   58.3   51.5   56.2  29.836  0.00  0.00   378     5.42    448     2.0  0.14   2.2   0.049   0.000   70.7    57   54.7   69.8  10.52  .0735    0.000   203    7    100.0   10 
 9/18/21 12:00p   57.8   58.0   57.8    97   57.0  19.0     N   3.17  34.0     N   51.0   58.1   51.3   54.2  29.840  0.00  0.00   249     3.57    297     1.6  0.11   1.8   0.050   0.000   70.8    57   54.8   69.9  10.52  .0735    0.007   203    7    100.0   10 
Email: AdamSPAM@StormwatchersRetreat.com (To send me email remove the word 'SPAM' from my email address.)